Latest Weather Observations for Varanus Island

IDW60801

Issued at 10:13 pm WST Wednesday 8 July 2020 (issued every 10 minutes, with the page automatically refreshed every 10 minutes)

About weather observations | Map of weather stations | Latest weather observations for WA | Other Formats
Station Details ID: 200100 Name: VARANUS ISLAND Lat: -20.66 Lon: 115.58 Height: 24.0 m
Data from the previous 72 hours. | See also: Recent months at Varanus Island
Date/Time
WST
Temp
°C
App
Temp
°C
Dew
Point
°C
Rel
Hum
%
Delta-T
°C
Wind Press
QNH
hPa
Press
MSL
hPa
Rain since
9am
mm
Dir  Spd
km/h
Gust
km/h
Spd
kts
Gust
kts
08/10:00pm 23.4 21.3 12.4 50 6.3 SW 15 17 8 9 1017.5 - 0.0
08/09:30pm 23.4 21.8 12.7 51 6.1 WSW 13 15 7 8 1017.4 - 0.0
08/09:00pm 23.0 21.9 13.2 54 5.6 W 11 13 6 7 1017.2 1017.1 0.0
08/08:30pm 23.2 21.5 11.3 47 6.7 W 11 13 6 7 1017.1 - 0.0
08/08:00pm 23.1 21.6 11.8 49 6.4 WNW 11 13 6 7 1016.9 - 0.0
08/07:30pm 23.0 22.5 13.8 56 5.4 WNW 9 11 5 6 1016.7 - 0.0
08/07:00pm 23.1 22.0 11.8 49 6.4 W 9 11 5 6 1016.6 - 0.0
08/06:30pm 23.2 22.0 10.3 44 7.1 WNW 7 9 4 5 1016.3 - 0.0
08/06:00pm 23.8 22.4 9.0 39 8.0 W 6 7 3 4 1016.0 1015.9 0.0
08/05:30pm 24.8 23.5 9.9 39 8.2 W 7 9 4 5 1015.8 - 0.0
08/05:00pm 26.0 24.2 7.1 30 10.0 NW 6 7 3 4 1015.7 - 0.0
08/04:30pm 26.3 24.8 6.9 29 10.2 SE 4 7 2 4 1015.7 - 0.0
08/04:00pm 25.0 23.2 7.2 32 9.3 SE 6 7 3 4 1015.7 - 0.0
08/03:30pm 25.3 23.5 7.9 33 9.3 SE 7 9 4 5 1015.7 - 0.0
08/03:00pm 25.3 22.9 8.7 35 9.0 E 11 13 6 7 1015.8 1015.7 0.0
08/02:30pm 25.4 22.7 7.5 32 9.5 ESE 11 13 6 7 1016.0 - 0.0
08/02:00pm 25.5 23.1 8.5 34 9.2 ESE 11 15 6 8 1016.4 - 0.0
08/01:30pm 25.1 22.6 9.8 38 8.4 ESE 13 17 7 9 - - -
08/01:00pm 25.2 22.0 9.9 38 8.4 ESE 17 19 9 10 1017.1 - 0.0
08/12:30pm 24.9 21.3 10.0 39 8.2 ESE 19 20 10 11 1017.7 - 0.0
08/12:00pm 25.1 21.8 10.9 41 7.9 SE 19 22 10 12 1018.2 1018.0 0.0
08/11:30am 24.7 22.3 13.9 51 6.4 SE 19 22 10 12 1018.5 - 0.0
08/11:00am 24.3 22.7 15.0 56 5.6 SE 17 20 9 11 1018.9 - 0.0
08/10:30am 24.0 22.7 15.8 60 5.0 SE 17 20 9 11 1019.2 - 0.0
08/10:00am 23.8 23.1 16.3 63 4.6 SE 15 19 8 10 1019.4 - 0.0
08/09:30am 23.5 23.5 17.3 68 3.8 SE 13 17 7 9 1019.3 - 0.0
08/09:00am 23.1 23.0 17.8 72 3.3 SE 15 17 8 9 1019.2 1019.0 0.0
08/08:30am 22.6 22.7 18.4 77 2.6 ESE 15 17 8 9 1019.2 - 0.0
08/08:00am 22.6 23.2 18.6 78 2.5 ESE 13 15 7 8 1019.0 - 0.0
08/06:30am 22.1 22.7 15.2 65 4.1 SW 6 9 3 5 1018.0 - 0.0
08/06:00am 22.0 22.3 14.9 64 4.2 SW 7 9 4 5 1017.9 - 0.0
08/05:30am 22.0 22.3 15.1 65 4.1 SW 7 9 4 5 - - 0.0
08/05:00am 21.8 22.3 15.6 68 3.7 SW 7 9 4 5 1017.5 - 0.0
08/04:00am 22.0 22.9 16.7 72 3.2 SW 7 9 4 5 1018.0 - 0.0
08/03:30am 21.9 22.2 16.0 69 3.6 SW 9 11 5 6 1018.0 - -
08/03:00am 21.8 21.5 15.4 67 3.8 SW 11 15 6 8 1018.0 - 0.0
08/02:30am 22.3 21.8 17.0 72 3.3 SW 15 17 8 9 1018.2 - 0.0
08/02:00am 21.9 22.6 16.2 70 3.4 SSW 7 9 4 5 1018.4 - 0.0
08/01:30am 22.0 22.5 16.5 71 3.3 SSW 9 11 5 6 1018.2 - 0.0
08/01:00am 21.8 21.8 16.3 71 3.3 SSW 11 13 6 7 1018.5 - -
08/12:30am 21.9 22.3 16.2 70 3.4 SSW 9 11 5 6 1018.6 - -
08/12:00am 22.2 21.4 16.0 68 3.7 S 15 17 8 9 1019.1 - 0.0
 
Date/Time
WST
Temp
°C
App
Temp
°C
Dew
Point
°C
Rel
Hum
%
Delta-T
°C
Wind Press
QNH
hPa
Press
MSL
hPa
Rain since
9am
mm
Dir  Spd
km/h
Gust
km/h
Spd
kts
Gust
kts
07/11:30pm 22.4 21.6 16.2 68 3.8 S 15 17 8 9 1019.2 - 0.0
07/11:00pm 22.2 21.2 16.7 71 3.4 S 17 19 9 10 1019.2 - 0.0
07/10:30pm 22.4 21.4 14.5 61 4.7 S 13 15 7 8 1019.2 - 0.0
07/09:00pm 22.8 23.3 12.7 53 5.8 NE 2 6 1 3 1019.2 1019.0 0.0
07/08:30pm 23.0 22.5 12.6 52 5.9 NE 7 9 4 5 1019.2 - 0.0
07/08:00pm 23.4 22.0 12.1 49 6.4 NE 11 15 6 8 1018.8 - 0.0
07/07:30pm 23.7 21.1 12.0 48 6.6 NE 17 20 9 11 1018.5 - 0.0
07/07:00pm 23.7 21.2 12.4 49 6.5 NE 17 20 9 11 1018.3 - 0.0
07/06:30pm 23.5 21.1 12.5 50 6.3 NE 17 22 9 12 1018.0 - 0.0
07/06:00pm 23.6 21.3 12.9 51 6.2 NE 17 22 9 12 1017.5 1017.4 0.0
07/05:30pm 23.8 21.6 13.4 52 6.0 NE 17 22 9 12 1017.4 - 0.0
07/05:00pm 24.0 21.6 13.8 53 6.0 NE 19 24 10 13 1017.3 - 0.0
07/04:30pm 24.6 21.8 13.2 49 6.6 NE 20 24 11 13 1017.3 - 0.0
07/04:00pm 24.8 20.5 12.1 45 7.3 NE 26 32 14 17 1017.1 - 0.0
07/03:30pm 24.9 20.9 11.8 44 7.5 ENE 24 28 13 15 1017.2 - 0.0
07/03:00pm 25.8 21.1 10.8 39 8.4 ENE 26 33 14 18 1017.4 1017.3 0.0
07/02:30pm 25.9 20.6 9.7 36 8.9 E 28 32 15 17 1017.4 - 0.0
07/02:00pm 25.5 19.9 10.1 38 8.5 E 30 33 16 18 1017.7 - 0.0
07/01:30pm 25.2 20.2 12.1 44 7.5 E 30 33 16 18 - - 0.0
07/01:00pm 25.3 19.8 11.8 43 7.7 E 32 35 17 19 1018.1 - 0.0
07/12:30pm 25.2 19.3 10.6 40 8.1 E 32 35 17 19 1018.6 - 0.0
07/12:00pm 24.7 19.9 13.0 48 6.8 E 30 35 16 19 1019.0 1018.8 0.0
07/11:30am 24.3 20.1 13.5 51 6.3 E 28 32 15 17 1019.3 - 0.0
07/11:00am 24.1 20.7 13.6 52 6.1 ESE 24 28 13 15 1019.5 - 0.0
07/10:30am 23.9 20.6 12.8 49 6.4 SE 22 28 12 15 1019.8 - 0.0
07/10:00am 23.9 20.0 13.2 51 6.2 SE 26 32 14 17 1020.0 - 0.0
07/09:30am 23.9 20.8 12.2 48 6.7 SE 20 24 11 13 1020.1 - 0.0
07/09:00am 23.5 20.9 13.7 54 5.7 SSE 20 24 11 13 1020.0 1019.8 0.0
07/08:30am 22.7 20.3 14.5 60 4.8 SSE 20 24 11 13 1019.8 - 0.0
07/08:00am 22.1 20.2 15.7 67 3.8 SSE 20 24 11 13 1019.6 - 0.0
07/07:30am 21.5 20.0 16.2 72 3.2 SSE 19 24 10 13 1019.4 - 0.0
07/07:00am 21.2 19.3 16.8 76 2.7 SSE 22 26 12 14 1019.0 - 0.0
07/06:30am 21.3 20.0 16.9 76 2.7 SSE 19 24 10 13 1018.5 - 0.0
07/05:30am 21.4 20.5 17.8 80 2.2 SE 19 20 10 11 1018.4 - 0.0
07/05:00am 21.3 20.3 17.5 79 2.3 SSE 19 24 10 13 1018.4 - 0.0
07/04:30am 21.3 20.6 18.3 83 1.9 SSE 19 22 10 12 1018.6 - 0.0
07/04:00am 21.4 21.0 18.0 81 2.1 SSE 17 19 9 10 1018.7 - 0.0
07/03:30am 21.5 20.9 18.5 83 1.9 S 19 20 10 11 1018.7 - 0.0
07/03:00am 21.6 21.6 19.0 85 1.6 S 17 20 9 11 1018.9 - 0.0
07/02:30am 21.8 21.3 18.6 82 2.0 SSE 19 22 10 12 1019.1 - 0.0
07/02:00am 22.2 22.3 16.5 70 3.5 SE 11 13 6 7 1019.4 - 0.0
07/01:30am 22.5 23.0 16.5 69 3.7 SE 9 11 5 6 1019.6 - 0.0
07/12:00am - - - - - - - - - - - 1019.0 -
 
Date/Time
WST
Temp
°C
App
Temp
°C
Dew
Point
°C
Rel
Hum
%
Delta-T
°C
Wind Press
QNH
hPa
Press
MSL
hPa
Rain since
9am
mm
Dir  Spd
km/h
Gust
km/h
Spd
kts
Gust
kts
06/11:30pm 23.1 22.6 15.9 64 4.4 ENE 13 15 7 8 1019.2 - 0.0
06/10:30pm 23.1 21.6 15.4 62 4.6 NE 17 20 9 11 1019.3 - 0.0
06/09:30pm 23.2 21.7 15.3 61 4.7 NE 17 19 9 10 1019.1 - 0.0
06/08:30pm 23.3 21.3 14.0 56 5.5 NE 17 20 9 11 1018.9 - 0.0
06/08:00pm 23.5 21.0 13.4 53 5.9 NE 19 24 10 13 1018.7 - 0.0
06/07:30pm 23.5 20.9 13.1 52 6.0 NE 19 24 10 13 1018.6 - 0.0
06/07:00pm 23.6 20.7 12.9 51 6.2 NE 20 26 11 14 1018.3 - 0.0
06/06:30pm 23.6 20.4 13.2 52 6.0 NE 22 30 12 16 1018.0 - 0.0
06/06:00pm 23.7 19.7 13.0 51 6.2 NE 26 32 14 17 1017.9 - 0.0
06/05:30pm 24.0 18.5 12.0 47 6.8 ENE 32 39 17 21 1017.5 - 0.0
06/05:00pm 24.2 19.5 13.1 50 6.4 ENE 30 35 16 19 1017.3 - 0.0
06/04:30pm 24.4 18.8 12.0 46 7.1 ENE 33 37 18 20 1017.2 - 0.0
06/04:00pm 24.7 20.1 13.6 50 6.5 E 30 35 16 19 1017.3 - 0.0
06/03:30pm 24.3 19.7 13.5 51 6.3 E 30 35 16 19 1017.2 - 0.0
06/03:00pm 24.3 19.7 13.5 51 6.3 E 30 33 16 18 1017.4 1017.3 0.0
06/02:30pm 24.2 19.9 14.3 54 5.9 E 30 33 16 18 1017.5 - 0.0
06/02:00pm 24.7 19.7 13.9 51 6.4 E 33 39 18 21 1017.5 - 0.0
06/01:00pm 24.7 19.8 13.6 50 6.5 E 32 35 17 19 1018.1 - 0.0
06/12:30pm 24.0 18.5 12.0 47 6.8 E 32 35 17 19 1018.6 - 0.0
06/12:00pm 24.4 18.9 12.0 46 7.0 E 32 37 17 20 1019.1 1018.9 0.0
06/11:30am 23.9 18.8 13.2 51 6.2 E 32 35 17 19 1019.4 - 0.0
06/11:00am 24.1 19.1 13.3 51 6.3 E 32 37 17 20 1019.7 - 0.0
06/10:30am 23.8 18.2 13.4 52 6.0 E 35 39 19 21 1019.9 - 0.0
06/10:00am 23.9 18.2 11.9 47 6.8 ESE 33 39 18 21 1019.9 - 0.0
06/09:30am 23.9 18.5 12.8 49 6.4 ESE 33 39 18 21 1019.8 - 0.0
06/09:00am 23.9 18.6 13.2 51 6.2 E 33 41 18 22 1019.6 1019.4 0.0
06/08:30am 23.6 18.4 13.5 53 5.9 ESE 33 37 18 20 1019.4 - 0.0
06/08:00am 23.4 18.5 14.4 57 5.3 ESE 33 37 18 20 - - 0.0
06/07:30am 23.2 18.9 15.5 62 4.6 E 32 39 17 21 1018.6 - 0.0
06/07:00am 22.5 19.7 18.1 76 2.7 ESE 30 33 16 18 1018.4 - 0.0
06/06:30am 22.6 20.5 19.0 80 2.3 ESE 28 32 15 17 1018.3 - 0.0
06/06:00am 22.5 21.2 19.9 85 1.7 ESE 26 30 14 16 1018.1 - 0.0
06/05:30am 22.5 21.6 19.9 85 1.7 ESE 24 26 13 14 1017.8 - 0.0
06/05:00am 22.9 22.2 19.5 81 2.2 ESE 22 24 12 13 1017.4 - 0.0
06/04:30am 23.6 22.7 18.3 72 3.3 E 20 22 11 12 1017.7 - 0.0
06/04:00am 23.9 22.4 17.6 68 3.9 E 22 26 12 14 1017.4 - 0.0
06/03:30am 24.1 22.1 17.4 66 4.2 ENE 24 28 13 15 1017.1 - 0.0
06/03:00am 24.3 21.5 16.3 61 4.9 ENE 26 30 14 16 1017.3 - 0.0
06/02:30am 24.7 21.5 16.2 59 5.2 ENE 28 35 15 19 1017.2 - 0.0
06/02:00am 24.5 21.8 16.7 61 4.8 ENE 26 32 14 17 1017.1 - 0.0
06/01:30am 24.5 22.5 17.5 65 4.4 ENE 24 30 13 16 1017.1 - 0.0
06/01:00am 24.5 23.2 17.2 63 4.5 NE 20 28 11 15 1017.2 - 0.0
06/12:30am 24.4 23.4 17.6 66 4.2 NE 19 28 10 15 1017.3 - 0.0
 
Date/Time
WST
Temp
°C
App
Temp
°C
Dew
Point
°C
Rel
Hum
%
Delta-T
°C
Wind Press
QNH
hPa
Press
MSL
hPa
Rain since
9am
mm
Dir  Spd
km/h
Gust
km/h
Spd
kts
Gust
kts
05/11:30pm 24.7 23.2 17.7 65 4.4 NE 22 28 12 15 1017.4 - 0.0
05/10:30pm 24.6 21.9 16.6 61 4.9 NE 26 32 14 17 1017.5 - 0.0

Other formats

Comma delimited format used in spreadsheet applications
http://www.bom.gov.au/fwo/IDW60801/IDW60801.95303.axf

JavaScript Object Notation format (JSON) in row-major order
http://www.bom.gov.au/fwo/IDW60801/IDW60801.95303.json

Data quality

Most of these data are generated automatically and are frequently updated. Quality checks on data are not normally performed. It is possible for incorrect values to appear. Refer to information at About Latest Weather Observations and please check the disclaimer before using these data.